sensor_id;sensor_type;location;lat;lon;timestamp;temperature;humidity
7216;DHT22;3649;48.798;9.798;2023-09-12T00:01:21;22.20;99.90
7216;DHT22;3649;48.798;9.798;2023-09-12T00:03:48;22.20;99.90
7216;DHT22;3649;48.798;9.798;2023-09-12T00:06:15;22.20;99.90
7216;DHT22;3649;48.798;9.798;2023-09-12T00:08:42;22.20;99.90
7216;DHT22;3649;48.798;9.798;2023-09-12T00:11:10;22.20;99.90
7216;DHT22;3649;48.798;9.798;2023-09-12T00:13:39;22.20;99.90
7216;DHT22;3649;48.798;9.798;2023-09-12T00:16:07;22.10;99.90
7216;DHT22;3649;48.798;9.798;2023-09-12T00:18:39;22.10;99.90
7216;DHT22;3649;48.798;9.798;2023-09-12T00:21:07;22.00;99.90
7216;DHT22;3649;48.798;9.798;2023-09-12T00:23:34;22.00;99.90
7216;DHT22;3649;48.798;9.798;2023-09-12T00:26:01;22.00;99.90
7216;DHT22;3649;48.798;9.798;2023-09-12T00:28:28;22.00;99.90
7216;DHT22;3649;48.798;9.798;2023-09-12T00:30:55;22.00;99.90
7216;DHT22;3649;48.798;9.798;2023-09-12T00:33:22;22.00;99.90
7216;DHT22;3649;48.798;9.798;2023-09-12T00:35:49;22.00;99.90
7216;DHT22;3649;48.798;9.798;2023-09-12T00:38:16;21.90;99.90
7216;DHT22;3649;48.798;9.798;2023-09-12T00:40:42;21.90;99.90
7216;DHT22;3649;48.798;9.798;2023-09-12T00:43:09;22.00;99.90
7216;DHT22;3649;48.798;9.798;2023-09-12T00:45:37;21.90;99.90
7216;DHT22;3649;48.798;9.798;2023-09-12T00:48:05;21.90;99.90
7216;DHT22;3649;48.798;9.798;2023-09-12T00:50:32;21.90;99.90
7216;DHT22;3649;48.798;9.798;2023-09-12T00:53:01;21.90;99.90
7216;DHT22;3649;48.798;9.798;2023-09-12T00:55:30;21.90;99.90
7216;DHT22;3649;48.798;9.798;2023-09-12T00:57:58;21.90;99.90
7216;DHT22;3649;48.798;9.798;2023-09-12T01:00:26;21.90;99.90
7216;DHT22;3649;48.798;9.798;2023-09-12T01:02:53;21.90;99.90
7216;DHT22;3649;48.798;9.798;2023-09-12T01:05:22;21.80;99.90
7216;DHT22;3649;48.798;9.798;2023-09-12T01:07:49;21.80;99.90
7216;DHT22;3649;48.798;9.798;2023-09-12T01:10:16;21.80;99.90
7216;DHT22;3649;48.798;9.798;2023-09-12T01:12:44;21.80;99.90
7216;DHT22;3649;48.798;9.798;2023-09-12T01:15:11;21.70;99.90
7216;DHT22;3649;48.798;9.798;2023-09-12T01:17:44;21.70;99.90
7216;DHT22;3649;48.798;9.798;2023-09-12T01:20:15;21.70;99.90
7216;DHT22;3649;48.798;9.798;2023-09-12T01:23:29;21.70;99.90
7216;DHT22;3649;48.798;9.798;2023-09-12T01:28:10;21.70;99.90
7216;DHT22;3649;48.798;9.798;2023-09-12T01:30:38;21.70;99.90
7216;DHT22;3649;48.798;9.798;2023-09-12T01:33:06;21.70;99.90
7216;DHT22;3649;48.798;9.798;2023-09-12T01:35:33;21.70;99.90
7216;DHT22;3649;48.798;9.798;2023-09-12T01:38:00;21.70;99.90
7216;DHT22;3649;48.798;9.798;2023-09-12T01:40:46;21.70;99.90
7216;DHT22;3649;48.798;9.798;2023-09-12T01:43:17;21.70;99.90
7216;DHT22;3649;48.798;9.798;2023-09-12T01:45:48;21.70;99.90
7216;DHT22;3649;48.798;9.798;2023-09-12T01:48:19;21.70;99.90
7216;DHT22;3649;48.798;9.798;2023-09-12T01:50:48;21.70;99.90
7216;DHT22;3649;48.798;9.798;2023-09-12T01:53:16;21.70;99.90
7216;DHT22;3649;48.798;9.798;2023-09-12T01:55:43;21.60;99.90
7216;DHT22;3649;48.798;9.798;2023-09-12T01:58:12;21.60;99.90
7216;DHT22;3649;48.798;9.798;2023-09-12T02:00:40;21.60;99.90
7216;DHT22;3649;48.798;9.798;2023-09-12T02:03:07;21.60;99.90
7216;DHT22;3649;48.798;9.798;2023-09-12T02:05:34;21.50;99.90
7216;DHT22;3649;48.798;9.798;2023-09-12T02:08:02;21.50;99.90
7216;DHT22;3649;48.798;9.798;2023-09-12T02:10:29;21.60;99.90
7216;DHT22;3649;48.798;9.798;2023-09-12T02:12:56;21.50;99.90
7216;DHT22;3649;48.798;9.798;2023-09-12T02:15:23;21.50;99.90
7216;DHT22;3649;48.798;9.798;2023-09-12T02:17:50;21.40;99.90
7216;DHT22;3649;48.798;9.798;2023-09-12T02:20:18;21.40;99.90
7216;DHT22;3649;48.798;9.798;2023-09-12T02:22:46;21.40;99.90
7216;DHT22;3649;48.798;9.798;2023-09-12T02:25:13;21.40;99.90
7216;DHT22;3649;48.798;9.798;2023-09-12T02:27:39;21.30;99.90
7216;DHT22;3649;48.798;9.798;2023-09-12T02:30:07;21.30;99.90
7216;DHT22;3649;48.798;9.798;2023-09-12T02:32:34;21.30;99.90
7216;DHT22;3649;48.798;9.798;2023-09-12T02:35:01;21.30;99.90
7216;DHT22;3649;48.798;9.798;2023-09-12T02:37:29;21.30;99.90
7216;DHT22;3649;48.798;9.798;2023-09-12T02:39:55;21.30;99.90
7216;DHT22;3649;48.798;9.798;2023-09-12T02:42:23;21.30;99.90
7216;DHT22;3649;48.798;9.798;2023-09-12T02:44:50;21.30;99.90
7216;DHT22;3649;48.798;9.798;2023-09-12T02:47:19;21.20;99.90
7216;DHT22;3649;48.798;9.798;2023-09-12T02:49:46;21.20;99.90
7216;DHT22;3649;48.798;9.798;2023-09-12T02:52:13;21.20;99.90
7216;DHT22;3649;48.798;9.798;2023-09-12T02:54:39;21.10;99.90
7216;DHT22;3649;48.798;9.798;2023-09-12T02:57:06;21.10;99.90
7216;DHT22;3649;48.798;9.798;2023-09-12T02:59:33;21.10;99.90
7216;DHT22;3649;48.798;9.798;2023-09-12T03:02:00;21.10;99.90
7216;DHT22;3649;48.798;9.798;2023-09-12T03:04:27;21.00;99.90
7216;DHT22;3649;48.798;9.798;2023-09-12T03:06:56;21.00;99.90
7216;DHT22;3649;48.798;9.798;2023-09-12T03:09:23;21.00;99.90
7216;DHT22;3649;48.798;9.798;2023-09-12T03:11:51;21.00;99.90
7216;DHT22;3649;48.798;9.798;2023-09-12T03:14:18;21.00;99.90
7216;DHT22;3649;48.798;9.798;2023-09-12T03:16:45;21.00;99.90
7216;DHT22;3649;48.798;9.798;2023-09-12T03:19:12;21.00;99.90
7216;DHT22;3649;48.798;9.798;2023-09-12T03:21:39;21.00;99.90
7216;DHT22;3649;48.798;9.798;2023-09-12T03:24:06;20.90;99.90
7216;DHT22;3649;48.798;9.798;2023-09-12T03:26:34;20.90;99.90
7216;DHT22;3649;48.798;9.798;2023-09-12T03:29:05;20.90;99.90
7216;DHT22;3649;48.798;9.798;2023-09-12T03:31:32;20.90;99.90
7216;DHT22;3649;48.798;9.798;2023-09-12T03:33:59;20.90;99.90
7216;DHT22;3649;48.798;9.798;2023-09-12T03:36:26;20.90;99.90
7216;DHT22;3649;48.798;9.798;2023-09-12T03:38:53;21.00;99.90
7216;DHT22;3649;48.798;9.798;2023-09-12T03:41:20;21.00;99.90
7216;DHT22;3649;48.798;9.798;2023-09-12T03:43:55;21.00;99.90
7216;DHT22;3649;48.798;9.798;2023-09-12T03:46:22;21.00;99.90
7216;DHT22;3649;48.798;9.798;2023-09-12T03:48:49;21.00;99.90
7216;DHT22;3649;48.798;9.798;2023-09-12T03:51:16;21.00;99.90
7216;DHT22;3649;48.798;9.798;2023-09-12T03:53:43;21.00;99.90
7216;DHT22;3649;48.798;9.798;2023-09-12T03:56:10;21.00;99.90
7216;DHT22;3649;48.798;9.798;2023-09-12T03:58:39;20.90;99.90
7216;DHT22;3649;48.798;9.798;2023-09-12T04:01:07;20.90;99.90
7216;DHT22;3649;48.798;9.798;2023-09-12T04:03:34;20.80;99.90
7216;DHT22;3649;48.798;9.798;2023-09-12T04:06:01;20.80;99.90
7216;DHT22;3649;48.798;9.798;2023-09-12T04:08:28;20.90;99.90
7216;DHT22;3649;48.798;9.798;2023-09-12T04:10:54;20.90;99.90
7216;DHT22;3649;48.798;9.798;2023-09-12T04:13:21;21.00;99.90
7216;DHT22;3649;48.798;9.798;2023-09-12T04:15:48;21.00;99.90
7216;DHT22;3649;48.798;9.798;2023-09-12T04:18:15;21.00;99.90
7216;DHT22;3649;48.798;9.798;2023-09-12T04:20:42;21.00;99.90
7216;DHT22;3649;48.798;9.798;2023-09-12T04:23:09;21.00;99.90
7216;DHT22;3649;48.798;9.798;2023-09-12T04:25:36;21.10;99.90
7216;DHT22;3649;48.798;9.798;2023-09-12T04:28:03;21.00;99.90
7216;DHT22;3649;48.798;9.798;2023-09-12T04:30:30;21.00;99.90
7216;DHT22;3649;48.798;9.798;2023-09-12T04:32:57;21.00;99.90
7216;DHT22;3649;48.798;9.798;2023-09-12T04:35:24;21.00;99.90
7216;DHT22;3649;48.798;9.798;2023-09-12T04:37:51;21.00;99.90
7216;DHT22;3649;48.798;9.798;2023-09-12T04:40:18;20.90;99.90
7216;DHT22;3649;48.798;9.798;2023-09-12T04:42:45;20.90;99.90
7216;DHT22;3649;48.798;9.798;2023-09-12T04:45:12;20.90;99.90
7216;DHT22;3649;48.798;9.798;2023-09-12T04:47:39;21.00;99.90
7216;DHT22;3649;48.798;9.798;2023-09-12T04:50:06;21.00;99.90
7216;DHT22;3649;48.798;9.798;2023-09-12T04:52:33;21.00;99.90
7216;DHT22;3649;48.798;9.798;2023-09-12T04:55:01;20.90;99.90
7216;DHT22;3649;48.798;9.798;2023-09-12T04:57:28;20.90;99.90
7216;DHT22;3649;48.798;9.798;2023-09-12T04:59:57;20.90;99.90
7216;DHT22;3649;48.798;9.798;2023-09-12T05:02:27;20.90;99.90
7216;DHT22;3649;48.798;9.798;2023-09-12T05:04:55;21.00;99.90
7216;DHT22;3649;48.798;9.798;2023-09-12T05:07:21;20.90;99.90
7216;DHT22;3649;48.798;9.798;2023-09-12T05:09:49;20.90;99.90
7216;DHT22;3649;48.798;9.798;2023-09-12T05:12:16;20.80;99.90
7216;DHT22;3649;48.798;9.798;2023-09-12T05:14:43;20.80;99.90
7216;DHT22;3649;48.798;9.798;2023-09-12T05:17:09;20.80;99.90
7216;DHT22;3649;48.798;9.798;2023-09-12T05:19:36;20.80;99.90
7216;DHT22;3649;48.798;9.798;2023-09-12T05:22:03;20.90;99.90
7216;DHT22;3649;48.798;9.798;2023-09-12T05:24:30;20.90;99.90
7216;DHT22;3649;48.798;9.798;2023-09-12T05:26:57;20.90;99.90
7216;DHT22;3649;48.798;9.798;2023-09-12T05:29:24;20.90;99.90
7216;DHT22;3649;48.798;9.798;2023-09-12T05:31:51;20.90;99.90
7216;DHT22;3649;48.798;9.798;2023-09-12T05:34:18;20.80;99.90
7216;DHT22;3649;48.798;9.798;2023-09-12T05:36:45;20.80;99.90
7216;DHT22;3649;48.798;9.798;2023-09-12T05:39:12;20.80;99.90
7216;DHT22;3649;48.798;9.798;2023-09-12T05:41:40;20.90;99.90
7216;DHT22;3649;48.798;9.798;2023-09-12T05:44:07;20.80;99.90
7216;DHT22;3649;48.798;9.798;2023-09-12T05:46:34;20.80;99.90
7216;DHT22;3649;48.798;9.798;2023-09-12T05:49:01;20.80;99.90
7216;DHT22;3649;48.798;9.798;2023-09-12T05:51:30;20.80;99.90
7216;DHT22;3649;48.798;9.798;2023-09-12T05:53:58;20.80;99.90
7216;DHT22;3649;48.798;9.798;2023-09-12T05:56:25;20.80;99.90
7216;DHT22;3649;48.798;9.798;2023-09-12T05:58:52;20.90;99.90
7216;DHT22;3649;48.798;9.798;2023-09-12T06:01:19;21.00;99.90
7216;DHT22;3649;48.798;9.798;2023-09-12T06:03:46;20.90;99.90
7216;DHT22;3649;48.798;9.798;2023-09-12T06:06:14;20.90;99.90
7216;DHT22;3649;48.798;9.798;2023-09-12T06:08:40;20.90;99.90
7216;DHT22;3649;48.798;9.798;2023-09-12T06:11:08;21.00;99.90
7216;DHT22;3649;48.798;9.798;2023-09-12T06:13:35;21.00;99.90
7216;DHT22;3649;48.798;9.798;2023-09-12T06:16:05;21.00;99.90
7216;DHT22;3649;48.798;9.798;2023-09-12T06:18:33;21.10;99.90
7216;DHT22;3649;48.798;9.798;2023-09-12T06:21:01;21.10;99.90
7216;DHT22;3649;48.798;9.798;2023-09-12T06:23:30;21.20;99.90
7216;DHT22;3649;48.798;9.798;2023-09-12T06:25:58;21.20;99.90
7216;DHT22;3649;48.798;9.798;2023-09-12T06:28:27;21.20;99.90
7216;DHT22;3649;48.798;9.798;2023-09-12T06:30:54;21.20;99.90
7216;DHT22;3649;48.798;9.798;2023-09-12T06:33:21;21.30;99.90
7216;DHT22;3649;48.798;9.798;2023-09-12T06:35:49;21.30;99.90
7216;DHT22;3649;48.798;9.798;2023-09-12T06:38:16;21.40;99.90
7216;DHT22;3649;48.798;9.798;2023-09-12T06:40:43;21.40;99.90
7216;DHT22;3649;48.798;9.798;2023-09-12T06:43:11;21.50;99.90
7216;DHT22;3649;48.798;9.798;2023-09-12T06:45:38;21.60;99.90
7216;DHT22;3649;48.798;9.798;2023-09-12T06:48:05;21.80;99.90
7216;DHT22;3649;48.798;9.798;2023-09-12T06:50:32;21.80;99.90
7216;DHT22;3649;48.798;9.798;2023-09-12T06:53:01;21.90;99.90
7216;DHT22;3649;48.798;9.798;2023-09-12T06:55:28;21.90;99.90
7216;DHT22;3649;48.798;9.798;2023-09-12T06:57:55;21.90;99.90
7216;DHT22;3649;48.798;9.798;2023-09-12T07:00:22;22.00;99.90
7216;DHT22;3649;48.798;9.798;2023-09-12T07:02:49;22.00;99.90
7216;DHT22;3649;48.798;9.798;2023-09-12T07:05:16;22.10;99.90
7216;DHT22;3649;48.798;9.798;2023-09-12T07:07:43;22.20;99.90
7216;DHT22;3649;48.798;9.798;2023-09-12T07:10:10;22.30;99.90
7216;DHT22;3649;48.798;9.798;2023-09-12T07:12:50;22.30;99.90
7216;DHT22;3649;48.798;9.798;2023-09-12T07:15:17;22.40;99.90
7216;DHT22;3649;48.798;9.798;2023-09-12T07:17:44;22.50;99.90
7216;DHT22;3649;48.798;9.798;2023-09-12T07:20:11;22.60;99.90
7216;DHT22;3649;48.798;9.798;2023-09-12T07:22:39;22.60;99.90
7216;DHT22;3649;48.798;9.798;2023-09-12T07:25:09;22.70;99.90
7216;DHT22;3649;48.798;9.798;2023-09-12T07:27:39;22.90;99.90
7216;DHT22;3649;48.798;9.798;2023-09-12T07:30:07;23.00;99.90
7216;DHT22;3649;48.798;9.798;2023-09-12T07:32:34;23.20;99.90
7216;DHT22;3649;48.798;9.798;2023-09-12T07:35:02;23.30;99.90
7216;DHT22;3649;48.798;9.798;2023-09-12T07:37:29;23.50;99.90
7216;DHT22;3649;48.798;9.798;2023-09-12T07:39:56;23.60;99.90
7216;DHT22;3649;48.798;9.798;2023-09-12T07:42:24;23.80;99.90
7216;DHT22;3649;48.798;9.798;2023-09-12T07:44:51;23.90;99.90
7216;DHT22;3649;48.798;9.798;2023-09-12T07:47:19;24.00;99.90
7216;DHT22;3649;48.798;9.798;2023-09-12T07:49:46;24.10;99.90
7216;DHT22;3649;48.798;9.798;2023-09-12T07:52:19;24.10;99.90
7216;DHT22;3649;48.798;9.798;2023-09-12T07:54:46;23.10;99.90
7216;DHT22;3649;48.798;9.798;2023-09-12T07:57:13;24.40;99.90
7216;DHT22;3649;48.798;9.798;2023-09-12T07:59:40;24.50;99.90
7216;DHT22;3649;48.798;9.798;2023-09-12T08:02:06;24.60;99.90
7216;DHT22;3649;48.798;9.798;2023-09-12T08:04:35;24.80;99.90
7216;DHT22;3649;48.798;9.798;2023-09-12T08:07:02;24.90;99.90
7216;DHT22;3649;48.798;9.798;2023-09-12T08:09:54;25.00;99.90
7216;DHT22;3649;48.798;9.798;2023-09-12T08:12:22;25.10;99.90
7216;DHT22;3649;48.798;9.798;2023-09-12T08:14:49;25.10;99.90
7216;DHT22;3649;48.798;9.798;2023-09-12T08:17:17;25.10;99.90
7216;DHT22;3649;48.798;9.798;2023-09-12T08:19:44;25.20;99.90
7216;DHT22;3649;48.798;9.798;2023-09-12T08:22:12;25.20;99.90
7216;DHT22;3649;48.798;9.798;2023-09-12T08:24:39;25.20;99.90
7216;DHT22;3649;48.798;9.798;2023-09-12T08:27:07;25.20;99.90
7216;DHT22;3649;48.798;9.798;2023-09-12T08:29:34;25.30;99.90
7216;DHT22;3649;48.798;9.798;2023-09-12T08:32:01;25.40;99.90
7216;DHT22;3649;48.798;9.798;2023-09-12T08:34:28;25.40;99.90
7216;DHT22;3649;48.798;9.798;2023-09-12T08:36:55;25.50;99.90
7216;DHT22;3649;48.798;9.798;2023-09-12T08:39:27;25.50;99.90
7216;DHT22;3649;48.798;9.798;2023-09-12T08:41:54;25.60;99.90
7216;DHT22;3649;48.798;9.798;2023-09-12T08:44:22;25.60;99.90
7216;DHT22;3649;48.798;9.798;2023-09-12T08:46:49;25.60;99.90
7216;DHT22;3649;48.798;9.798;2023-09-12T08:49:16;25.70;99.90
7216;DHT22;3649;48.798;9.798;2023-09-12T08:51:43;25.70;99.90
7216;DHT22;3649;48.798;9.798;2023-09-12T08:54:12;25.70;99.90
7216;DHT22;3649;48.798;9.798;2023-09-12T08:56:40;25.70;99.90
7216;DHT22;3649;48.798;9.798;2023-09-12T08:59:10;25.80;99.90
7216;DHT22;3649;48.798;9.798;2023-09-12T09:01:37;25.80;99.90
7216;DHT22;3649;48.798;9.798;2023-09-12T09:04:05;25.90;99.90
7216;DHT22;3649;48.798;9.798;2023-09-12T09:06:34;25.90;99.90
7216;DHT22;3649;48.798;9.798;2023-09-12T09:09:05;25.90;99.90
7216;DHT22;3649;48.798;9.798;2023-09-12T09:11:33;25.90;99.90
7216;DHT22;3649;48.798;9.798;2023-09-12T09:14:02;26.00;99.90
7216;DHT22;3649;48.798;9.798;2023-09-12T09:16:30;25.90;99.90
7216;DHT22;3649;48.798;9.798;2023-09-12T09:19:05;26.00;99.90
7216;DHT22;3649;48.798;9.798;2023-09-12T09:21:38;26.00;99.90
7216;DHT22;3649;48.798;9.798;2023-09-12T09:24:08;26.10;99.90
7216;DHT22;3649;48.798;9.798;2023-09-12T09:26:47;26.10;99.90
7216;DHT22;3649;48.798;9.798;2023-09-12T09:29:18;26.10;99.90
7216;DHT22;3649;48.798;9.798;2023-09-12T09:31:47;26.10;99.90
7216;DHT22;3649;48.798;9.798;2023-09-12T09:34:16;26.20;99.90
7216;DHT22;3649;48.798;9.798;2023-09-12T09:36:50;26.20;99.90
7216;DHT22;3649;48.798;9.798;2023-09-12T09:39:26;26.20;99.90
7216;DHT22;3649;48.798;9.798;2023-09-12T09:41:55;26.20;99.90
7216;DHT22;3649;48.798;9.798;2023-09-12T09:44:23;26.20;99.90
7216;DHT22;3649;48.798;9.798;2023-09-12T09:46:55;26.20;99.90
7216;DHT22;3649;48.798;9.798;2023-09-12T09:49:25;26.20;99.90
7216;DHT22;3649;48.798;9.798;2023-09-12T09:51:55;26.20;99.90
7216;DHT22;3649;48.798;9.798;2023-09-12T09:54:24;26.10;99.90
7216;DHT22;3649;48.798;9.798;2023-09-12T09:56:56;26.10;99.90
7216;DHT22;3649;48.798;9.798;2023-09-12T09:59:25;26.10;99.90
7216;DHT22;3649;48.798;9.798;2023-09-12T10:01:57;26.10;99.90
7216;DHT22;3649;48.798;9.798;2023-09-12T10:04:27;26.10;99.90
7216;DHT22;3649;48.798;9.798;2023-09-12T10:06:58;26.00;99.90
7216;DHT22;3649;48.798;9.798;2023-09-12T10:09:29;26.00;99.90
7216;DHT22;3649;48.798;9.798;2023-09-12T10:11:58;26.00;99.90
7216;DHT22;3649;48.798;9.798;2023-09-12T10:14:26;26.10;99.90
7216;DHT22;3649;48.798;9.798;2023-09-12T10:17:00;26.10;99.90
7216;DHT22;3649;48.798;9.798;2023-09-12T10:19:51;26.10;99.90
7216;DHT22;3649;48.798;9.798;2023-09-12T10:22:34;26.10;99.90
7216;DHT22;3649;48.798;9.798;2023-09-12T10:25:01;26.10;99.90
7216;DHT22;3649;48.798;9.798;2023-09-12T10:27:29;26.10;99.90
7216;DHT22;3649;48.798;9.798;2023-09-12T10:29:57;26.10;99.90
7216;DHT22;3649;48.798;9.798;2023-09-12T10:32:28;26.20;99.90
7216;DHT22;3649;48.798;9.798;2023-09-12T10:34:59;26.20;99.90
7216;DHT22;3649;48.798;9.798;2023-09-12T10:37:27;26.20;99.90
7216;DHT22;3649;48.798;9.798;2023-09-12T10:39:56;26.20;99.90
7216;DHT22;3649;48.798;9.798;2023-09-12T10:42:25;26.30;99.90
7216;DHT22;3649;48.798;9.798;2023-09-12T10:44:54;26.30;99.90
7216;DHT22;3649;48.798;9.798;2023-09-12T10:47:22;26.30;99.90
7216;DHT22;3649;48.798;9.798;2023-09-12T10:49:50;26.30;99.90
7216;DHT22;3649;48.798;9.798;2023-09-12T10:52:29;26.20;99.90
7216;DHT22;3649;48.798;9.798;2023-09-12T10:54:56;26.30;99.90
7216;DHT22;3649;48.798;9.798;2023-09-12T10:57:24;26.30;99.90
7216;DHT22;3649;48.798;9.798;2023-09-12T11:02:38;26.40;99.90
7216;DHT22;3649;48.798;9.798;2023-09-12T11:07:58;26.40;99.90
7216;DHT22;3649;48.798;9.798;2023-09-12T11:10:27;26.40;99.90
7216;DHT22;3649;48.798;9.798;2023-09-12T11:12:56;26.40;99.90
7216;DHT22;3649;48.798;9.798;2023-09-12T11:15:25;26.50;99.90
7216;DHT22;3649;48.798;9.798;2023-09-12T11:18:03;26.50;99.90
7216;DHT22;3649;48.798;9.798;2023-09-12T11:21:00;26.50;99.90
7216;DHT22;3649;48.798;9.798;2023-09-12T11:23:29;26.50;99.90
7216;DHT22;3649;48.798;9.798;2023-09-12T11:26:08;26.50;99.90
7216;DHT22;3649;48.798;9.798;2023-09-12T11:28:38;26.50;99.90
7216;DHT22;3649;48.798;9.798;2023-09-12T11:31:05;26.50;99.90
7216;DHT22;3649;48.798;9.798;2023-09-12T11:33:33;26.50;99.90
7216;DHT22;3649;48.798;9.798;2023-09-12T11:36:01;26.50;99.90
7216;DHT22;3649;48.798;9.798;2023-09-12T11:38:31;26.60;99.90
7216;DHT22;3649;48.798;9.798;2023-09-12T11:40:59;26.60;99.90
7216;DHT22;3649;48.798;9.798;2023-09-12T11:43:27;26.60;99.90
7216;DHT22;3649;48.798;9.798;2023-09-12T11:45:56;26.60;99.90
7216;DHT22;3649;48.798;9.798;2023-09-12T11:48:24;26.70;99.90
7216;DHT22;3649;48.798;9.798;2023-09-12T11:50:53;26.70;99.90
7216;DHT22;3649;48.798;9.798;2023-09-12T11:53:22;26.70;99.90
7216;DHT22;3649;48.798;9.798;2023-09-12T11:55:52;26.70;99.90
7216;DHT22;3649;48.798;9.798;2023-09-12T11:58:21;26.70;99.90
7216;DHT22;3649;48.798;9.798;2023-09-12T12:00:56;26.70;99.90
7216;DHT22;3649;48.798;9.798;2023-09-12T12:03:25;26.70;99.90
7216;DHT22;3649;48.798;9.798;2023-09-12T12:05:54;26.70;99.90
7216;DHT22;3649;48.798;9.798;2023-09-12T12:08:22;26.70;99.90
7216;DHT22;3649;48.798;9.798;2023-09-12T12:10:58;26.70;99.90
7216;DHT22;3649;48.798;9.798;2023-09-12T12:13:26;26.70;99.90
7216;DHT22;3649;48.798;9.798;2023-09-12T12:15:55;26.70;99.90
7216;DHT22;3649;48.798;9.798;2023-09-12T12:18:24;26.80;99.90
7216;DHT22;3649;48.798;9.798;2023-09-12T12:20:51;26.90;99.90
7216;DHT22;3649;48.798;9.798;2023-09-12T12:23:18;26.90;99.90
7216;DHT22;3649;48.798;9.798;2023-09-12T12:25:45;26.90;99.90
7216;DHT22;3649;48.798;9.798;2023-09-12T12:28:12;26.90;99.90
7216;DHT22;3649;48.798;9.798;2023-09-12T12:30:39;26.90;99.90
7216;DHT22;3649;48.798;9.798;2023-09-12T12:33:08;26.90;99.90
7216;DHT22;3649;48.798;9.798;2023-09-12T12:36:02;26.90;99.90
7216;DHT22;3649;48.798;9.798;2023-09-12T12:38:39;27.00;99.90
7216;DHT22;3649;48.798;9.798;2023-09-12T12:41:28;27.00;99.90
7216;DHT22;3649;48.798;9.798;2023-09-12T12:44:12;27.00;99.90
7216;DHT22;3649;48.798;9.798;2023-09-12T12:46:53;27.10;99.90
7216;DHT22;3649;48.798;9.798;2023-09-12T12:49:21;27.10;99.90
7216;DHT22;3649;48.798;9.798;2023-09-12T12:51:50;27.10;99.90
7216;DHT22;3649;48.798;9.798;2023-09-12T12:54:22;27.20;99.90
7216;DHT22;3649;48.798;9.798;2023-09-12T12:56:49;27.10;99.90
7216;DHT22;3649;48.798;9.798;2023-09-12T12:59:16;27.10;99.90
7216;DHT22;3649;48.798;9.798;2023-09-12T13:01:44;27.00;99.90
7216;DHT22;3649;48.798;9.798;2023-09-12T13:04:11;27.10;99.90
7216;DHT22;3649;48.798;9.798;2023-09-12T13:06:38;27.00;99.90
7216;DHT22;3649;48.798;9.798;2023-09-12T13:09:07;27.00;99.90
7216;DHT22;3649;48.798;9.798;2023-09-12T13:11:35;27.10;99.90
7216;DHT22;3649;48.798;9.798;2023-09-12T13:14:03;27.10;99.90
7216;DHT22;3649;48.798;9.798;2023-09-12T13:16:37;27.10;99.90
7216;DHT22;3649;48.798;9.798;2023-09-12T13:19:06;27.10;99.90
7216;DHT22;3649;48.798;9.798;2023-09-12T13:21:33;27.20;99.90
7216;DHT22;3649;48.798;9.798;2023-09-12T13:24:00;27.20;99.90
7216;DHT22;3649;48.798;9.798;2023-09-12T13:26:29;27.20;99.90
7216;DHT22;3649;48.798;9.798;2023-09-12T13:28:56;27.20;99.90
7216;DHT22;3649;48.798;9.798;2023-09-12T13:31:24;27.40;99.90
7216;DHT22;3649;48.798;9.798;2023-09-12T13:33:52;27.20;99.90
7216;DHT22;3649;48.798;9.798;2023-09-12T13:36:19;27.20;99.90
7216;DHT22;3649;48.798;9.798;2023-09-12T13:38:46;27.40;99.90
7216;DHT22;3649;48.798;9.798;2023-09-12T13:41:15;27.50;99.90
7216;DHT22;3649;48.798;9.798;2023-09-12T13:43:42;27.50;99.90
7216;DHT22;3649;48.798;9.798;2023-09-12T13:46:12;27.50;99.90
7216;DHT22;3649;48.798;9.798;2023-09-12T13:48:39;27.50;99.90
7216;DHT22;3649;48.798;9.798;2023-09-12T13:51:07;27.50;99.90
7216;DHT22;3649;48.798;9.798;2023-09-12T13:53:34;27.40;99.90
7216;DHT22;3649;48.798;9.798;2023-09-12T13:56:01;27.40;99.90
7216;DHT22;3649;48.798;9.798;2023-09-12T13:58:49;27.40;99.90
7216;DHT22;3649;48.798;9.798;2023-09-12T14:01:17;27.60;99.90
7216;DHT22;3649;48.798;9.798;2023-09-12T14:03:58;27.50;99.90
7216;DHT22;3649;48.798;9.798;2023-09-12T14:06:26;27.60;99.90
7216;DHT22;3649;48.798;9.798;2023-09-12T14:08:53;27.50;99.90
7216;DHT22;3649;48.798;9.798;2023-09-12T14:11:21;27.50;99.90
7216;DHT22;3649;48.798;9.798;2023-09-12T14:14:02;27.50;99.90
7216;DHT22;3649;48.798;9.798;2023-09-12T14:16:42;27.50;99.90
7216;DHT22;3649;48.798;9.798;2023-09-12T14:19:14;27.50;99.90
7216;DHT22;3649;48.798;9.798;2023-09-12T14:21:42;27.50;99.90
7216;DHT22;3649;48.798;9.798;2023-09-12T14:24:12;27.60;99.90
7216;DHT22;3649;48.798;9.798;2023-09-12T14:26:39;27.60;99.90
7216;DHT22;3649;48.798;9.798;2023-09-12T14:29:07;27.60;99.90
7216;DHT22;3649;48.798;9.798;2023-09-12T14:31:35;27.70;99.90
7216;DHT22;3649;48.798;9.798;2023-09-12T14:34:07;27.60;99.90
7216;DHT22;3649;48.798;9.798;2023-09-12T14:36:39;27.60;99.90
7216;DHT22;3649;48.798;9.798;2023-09-12T14:39:07;27.60;99.90
7216;DHT22;3649;48.798;9.798;2023-09-12T14:41:34;27.50;99.90
7216;DHT22;3649;48.798;9.798;2023-09-12T14:44:01;27.50;99.90
7216;DHT22;3649;48.798;9.798;2023-09-12T14:46:28;27.50;99.90
7216;DHT22;3649;48.798;9.798;2023-09-12T14:48:55;27.40;99.90
7216;DHT22;3649;48.798;9.798;2023-09-12T14:51:28;27.40;99.90
7216;DHT22;3649;48.798;9.798;2023-09-12T14:54:01;27.30;99.90
7216;DHT22;3649;48.798;9.798;2023-09-12T14:56:29;27.30;99.90
7216;DHT22;3649;48.798;9.798;2023-09-12T14:58:56;27.30;99.90
7216;DHT22;3649;48.798;9.798;2023-09-12T15:01:23;27.30;99.90
7216;DHT22;3649;48.798;9.798;2023-09-12T15:03:52;27.20;99.90
7216;DHT22;3649;48.798;9.798;2023-09-12T15:06:19;27.20;99.90
7216;DHT22;3649;48.798;9.798;2023-09-12T15:08:49;27.10;99.90
7216;DHT22;3649;48.798;9.798;2023-09-12T15:11:16;27.10;99.90
7216;DHT22;3649;48.798;9.798;2023-09-12T15:13:43;27.10;99.90
7216;DHT22;3649;48.798;9.798;2023-09-12T15:16:12;27.10;99.90
7216;DHT22;3649;48.798;9.798;2023-09-12T15:18:39;27.00;99.90
7216;DHT22;3649;48.798;9.798;2023-09-12T15:21:07;27.00;99.90
7216;DHT22;3649;48.798;9.798;2023-09-12T15:23:34;27.00;99.90
7216;DHT22;3649;48.798;9.798;2023-09-12T15:26:01;27.00;99.90
7216;DHT22;3649;48.798;9.798;2023-09-12T15:28:28;27.00;99.90
7216;DHT22;3649;48.798;9.798;2023-09-12T15:30:55;27.10;99.90
7216;DHT22;3649;48.798;9.798;2023-09-12T15:33:23;27.10;99.90
7216;DHT22;3649;48.798;9.798;2023-09-12T15:35:50;27.10;99.90
7216;DHT22;3649;48.798;9.798;2023-09-12T15:38:17;27.20;99.90
7216;DHT22;3649;48.798;9.798;2023-09-12T15:40:44;27.20;99.90
7216;DHT22;3649;48.798;9.798;2023-09-12T15:43:11;27.20;99.90
7216;DHT22;3649;48.798;9.798;2023-09-12T15:45:50;27.20;99.90
7216;DHT22;3649;48.798;9.798;2023-09-12T15:48:17;27.10;99.90
7216;DHT22;3649;48.798;9.798;2023-09-12T15:50:45;27.10;99.90
7216;DHT22;3649;48.798;9.798;2023-09-12T15:53:13;27.10;99.90
7216;DHT22;3649;48.798;9.798;2023-09-12T15:55:40;27.10;99.90
7216;DHT22;3649;48.798;9.798;2023-09-12T15:58:07;27.00;99.90
7216;DHT22;3649;48.798;9.798;2023-09-12T16:00:34;27.00;99.90
7216;DHT22;3649;48.798;9.798;2023-09-12T16:03:01;27.00;99.90
7216;DHT22;3649;48.798;9.798;2023-09-12T16:05:28;27.00;99.90
7216;DHT22;3649;48.798;9.798;2023-09-12T16:07:55;27.00;99.90
7216;DHT22;3649;48.798;9.798;2023-09-12T16:10:22;26.90;99.90
7216;DHT22;3649;48.798;9.798;2023-09-12T16:12:49;26.90;99.90
7216;DHT22;3649;48.798;9.798;2023-09-12T16:15:16;26.90;99.90
7216;DHT22;3649;48.798;9.798;2023-09-12T16:17:43;26.80;99.90
7216;DHT22;3649;48.798;9.798;2023-09-12T16:20:11;26.80;99.90